createdAt,value
2018-02-26T00:01:28.500Z,-1.00
2018-02-26T00:03:57.316Z,-1.00
2018-02-26T00:06:26.919Z,-1.00
2018-02-26T00:08:56.556Z,-1.00
2018-02-26T00:11:25.455Z,-1.10
2018-02-26T00:13:54.306Z,-1.00
2018-02-26T00:16:23.169Z,-1.00
2018-02-26T00:18:52.028Z,-1.00
2018-02-26T00:21:20.876Z,-1.00
2018-02-26T00:23:50.460Z,-0.90
2018-02-26T00:26:19.430Z,-1.00
2018-02-26T00:28:48.288Z,-0.90
2018-02-26T00:31:17.882Z,-1.00
2018-02-26T00:33:47.506Z,-1.00
2018-02-26T00:36:17.155Z,-1.00
2018-02-26T00:38:45.998Z,-1.00
2018-02-26T00:41:15.632Z,-0.90
2018-02-26T00:43:44.481Z,-0.90
2018-02-26T00:46:13.326Z,-0.90
2018-02-26T00:48:42.163Z,-1.00
2018-02-26T00:51:11.783Z,-1.10
2018-02-26T00:53:41.397Z,-1.10
2018-02-26T00:56:11.754Z,-1.10
2018-02-26T00:58:40.603Z,-1.10
2018-02-26T01:01:10.222Z,-1.20
2018-02-26T01:03:39.072Z,-1.30
2018-02-26T01:06:07.922Z,-1.30
2018-02-26T01:08:36.763Z,-1.20
2018-02-26T01:11:06.922Z,-1.30
2018-02-26T01:13:36.518Z,-1.30
2018-02-26T01:16:05.384Z,-1.40
2018-02-26T01:18:35.027Z,-1.30
2018-02-26T01:21:03.885Z,-1.40
2018-02-26T01:23:33.498Z,-1.20
2018-02-26T01:26:02.354Z,-1.30
2018-02-26T01:28:31.218Z,-1.10
2018-02-26T01:31:00.051Z,-1.10
2018-02-26T01:33:28.906Z,-1.10
2018-02-26T01:35:58.511Z,-1.10
2018-02-26T01:38:27.622Z,-1.20
2018-02-26T01:40:57.223Z,-1.00
2018-02-26T01:43:26.884Z,-1.00
2018-02-26T01:45:55.758Z,-1.00
2018-02-26T01:48:24.616Z,-0.90
2018-02-26T01:51:06.142Z,-0.90
2018-02-26T01:53:35.015Z,-1.00
2018-02-26T01:56:03.867Z,-1.00
2018-02-26T01:58:33.504Z,-0.90
2018-02-26T02:01:02.353Z,-0.90
2018-02-26T02:03:31.198Z,-1.00
2018-02-26T02:06:00.047Z,-0.90
2018-02-26T02:08:29.658Z,-0.80
2018-02-26T02:10:59.266Z,-0.70
2018-02-26T02:13:28.898Z,-0.80
2018-02-26T02:15:58.110Z,-0.80
2018-02-26T02:18:27.018Z,-0.90
2018-02-26T02:20:55.874Z,-0.90
2018-02-26T02:23:24.731Z,-1.00
2018-02-26T02:25:54.879Z,-0.90
2018-02-26T02:28:23.711Z,-1.00
2018-02-26T02:30:52.562Z,-0.90
2018-02-26T02:33:21.414Z,-0.90
2018-02-26T02:35:51.046Z,-0.80
2018-02-26T02:38:19.865Z,-0.90
2018-02-26T02:40:48.729Z,-0.80
2018-02-26T02:43:17.569Z,-0.80
2018-02-26T02:45:47.219Z,-0.80
2018-02-26T02:48:16.039Z,-0.90
2018-02-26T02:50:44.915Z,-0.90
2018-02-26T02:53:13.759Z,-0.80
2018-02-26T02:55:43.400Z,-0.90
2018-02-26T02:58:13.017Z,-0.90
2018-02-26T03:00:41.848Z,-0.90
2018-02-26T03:03:11.477Z,-0.80
2018-02-26T03:05:40.346Z,-0.90
2018-02-26T03:08:09.999Z,-1.00
2018-02-26T03:10:38.854Z,-1.00
2018-02-26T03:13:08.482Z,-1.00
2018-02-26T03:15:37.310Z,-1.10
2018-02-26T03:18:06.171Z,-1.00
2018-02-26T03:20:35.270Z,-1.10
2018-02-26T03:23:04.158Z,-1.00
2018-02-26T03:25:33.014Z,-1.10
2018-02-26T03:28:02.226Z,-1.10
2018-02-26T03:30:31.062Z,-1.10
2018-02-26T03:32:59.918Z,-1.10
2018-02-26T03:35:28.777Z,-1.10
2018-02-26T03:37:58.394Z,-1.10
2018-02-26T03:40:27.245Z,-1.20
2018-02-26T03:42:57.609Z,-1.30
2018-02-26T03:45:26.467Z,-1.30
2018-02-26T03:47:56.091Z,-1.20
2018-02-26T03:50:24.953Z,-1.20
2018-02-26T03:52:53.799Z,-1.30
2018-02-26T03:55:22.643Z,-1.20
2018-02-26T03:57:52.258Z,-1.30
2018-02-26T04:00:21.946Z,-1.20
2018-02-26T04:02:50.784Z,-1.30
2018-02-26T04:05:19.634Z,-1.30
2018-02-26T04:07:49.265Z,-1.30
2018-02-26T04:10:18.112Z,-1.40
2018-02-26T04:12:46.954Z,-1.50
2018-02-26T04:15:16.233Z,-1.50
2018-02-26T04:17:45.846Z,-1.50
2018-02-26T04:20:14.705Z,-1.50
2018-02-26T04:22:43.559Z,-1.50
2018-02-26T04:25:12.431Z,-1.50
2018-02-26T04:27:41.263Z,-1.50
2018-02-26T04:30:10.119Z,-1.60
2018-02-26T04:32:38.974Z,-1.60
2018-02-26T04:35:08.922Z,-1.50
2018-02-26T04:37:37.770Z,-1.60
2018-02-26T04:40:07.706Z,-1.50
2018-02-26T04:42:37.311Z,-1.40
2018-02-26T04:45:06.925Z,-1.50
2018-02-26T04:47:35.797Z,-1.50
2018-02-26T04:50:05.414Z,-1.50
2018-02-26T04:52:35.024Z,-1.60
2018-02-26T04:55:04.201Z,-1.60
2018-02-26T04:57:33.067Z,-1.60
2018-02-26T05:00:01.924Z,-1.60
2018-02-26T05:02:30.784Z,-1.60
2018-02-26T05:04:59.882Z,-1.60
2018-02-26T05:07:29.490Z,-1.60
2018-02-26T05:09:59.145Z,-1.70
2018-02-26T05:12:27.990Z,-1.80
2018-02-26T05:14:57.604Z,-1.80
2018-02-26T05:17:26.527Z,-1.90
2018-02-26T05:19:56.301Z,-1.80
2018-02-26T05:22:26.337Z,-1.80
2018-02-26T05:24:55.295Z,-1.90
2018-02-26T05:27:24.120Z,-1.90
2018-02-26T05:29:52.981Z,-1.90
2018-02-26T05:32:21.909Z,-2.00
2018-02-26T05:34:50.761Z,-2.00
2018-02-26T05:37:19.951Z,-2.10
2018-02-26T05:39:48.838Z,-2.20
2018-02-26T05:42:17.706Z,-2.10
2018-02-26T05:44:46.534Z,-2.10
2018-02-26T05:47:15.406Z,-2.10
2018-02-26T05:49:44.298Z,-2.20
2018-02-26T05:52:13.143Z,-2.10
2018-02-26T05:54:41.990Z,-2.10
2018-02-26T05:57:10.837Z,-2.10
2018-02-26T05:59:40.470Z,-2.10
2018-02-26T06:02:09.323Z,-2.20
2018-02-26T06:04:38.978Z,-2.30
2018-02-26T06:07:07.823Z,-2.30
2018-02-26T06:09:37.464Z,-2.30
2018-02-26T06:12:07.078Z,-2.40
2018-02-26T06:14:35.926Z,-2.50
2018-02-26T06:17:05.545Z,-2.30
2018-02-26T06:19:35.895Z,-2.30
2018-02-26T06:22:04.768Z,-2.30
2018-02-26T06:24:34.406Z,-2.30
2018-02-26T06:27:03.258Z,-2.30
2018-02-26T06:29:32.124Z,-2.30
2018-02-26T06:32:00.967Z,-2.30
2018-02-26T06:34:30.584Z,-2.30
2018-02-26T06:37:00.226Z,-2.40
2018-02-26T06:39:29.066Z,-2.40
2018-02-26T06:41:57.918Z,-2.40
2018-02-26T06:44:26.766Z,-2.40
2018-02-26T06:46:56.055Z,-2.40
2018-02-26T06:49:25.662Z,-2.40
2018-02-26T06:51:55.301Z,-2.40
2018-02-26T06:54:24.188Z,-2.40
2018-02-26T06:56:53.774Z,-2.40
2018-02-26T06:59:23.391Z,-2.40
2018-02-26T07:01:52.990Z,-2.40
2018-02-26T07:04:22.704Z,-2.50
2018-02-26T07:06:51.511Z,-2.50
2018-02-26T07:09:20.811Z,-2.50
2018-02-26T07:11:49.659Z,-2.50
2018-02-26T07:14:18.488Z,-2.50
2018-02-26T07:16:47.386Z,-2.40
2018-02-26T07:19:16.259Z,-2.40
2018-02-26T07:21:45.122Z,-2.30
2018-02-26T07:24:14.791Z,-2.20
2018-02-26T07:26:43.608Z,-2.20
2018-02-26T07:29:13.283Z,-2.10
2018-02-26T07:31:42.181Z,-2.10
2018-02-26T07:34:11.028Z,-2.10
2018-02-26T07:36:39.870Z,-2.00
2018-02-26T07:39:08.741Z,-1.90
2018-02-26T07:41:37.585Z,-1.90
2018-02-26T07:44:07.900Z,-1.80
2018-02-26T07:46:37.607Z,-1.80
2018-02-26T07:49:07.228Z,-1.70
2018-02-26T07:51:36.838Z,-1.70
2018-02-26T07:54:05.711Z,-1.80
2018-02-26T07:56:35.354Z,-1.50
2018-02-26T07:59:04.200Z,-1.60
2018-02-26T08:01:33.093Z,-1.50
2018-02-26T08:04:02.714Z,-1.30
2018-02-26T08:06:32.339Z,-1.30
2018-02-26T08:09:01.939Z,-1.20
2018-02-26T08:11:30.840Z,-1.20
2018-02-26T08:14:00.462Z,-1.10
2018-02-26T08:16:29.294Z,-1.10
2018-02-26T08:18:58.138Z,-0.90
2018-02-26T08:21:26.990Z,-1.00
2018-02-26T08:23:56.616Z,-1.00
2018-02-26T08:26:26.242Z,-0.90
2018-02-26T08:28:55.087Z,-0.90
2018-02-26T08:31:24.538Z,-0.70
2018-02-26T08:33:54.153Z,-0.50
2018-02-26T08:36:23.784Z,-0.40
2018-02-26T08:38:52.623Z,-0.50
2018-02-26T08:41:22.996Z,-0.20
2018-02-26T08:43:51.883Z,-0.20
2018-02-26T08:46:20.680Z,-0.10
2018-02-26T08:48:49.695Z,-0.20
2018-02-26T08:51:18.526Z,-0.30
2018-02-26T08:53:48.143Z,-0.30
2018-02-26T08:56:17.734Z,-0.40
2018-02-26T08:58:47.351Z,-0.50
2018-02-26T09:01:17.003Z,-0.60
2018-02-26T09:03:45.850Z,-0.60
2018-02-26T09:06:15.467Z,-0.70
2018-02-26T09:08:44.441Z,-0.80
2018-02-26T09:11:14.046Z,-0.50
2018-02-26T09:13:44.459Z,-0.40
2018-02-26T09:16:13.315Z,-0.50
2018-02-26T09:18:42.265Z,-0.50
2018-02-26T09:21:11.885Z,-0.50
2018-02-26T09:23:40.751Z,-0.50
2018-02-26T09:26:10.403Z,-0.20
2018-02-26T09:28:39.463Z,-0.30
2018-02-26T09:31:08.318Z,-0.20
2018-02-26T09:33:37.152Z,-0.20
2018-02-26T09:36:06.007Z,-0.30
2018-02-26T09:38:35.702Z,-0.20
2018-02-26T09:41:04.594Z,-0.20
2018-02-26T09:43:33.430Z,-0.10
2018-02-26T09:46:02.274Z,0.20
2018-02-26T09:48:31.100Z,0.50
2018-02-26T09:51:00.864Z,0.70
2018-02-26T09:53:30.460Z,0.60
2018-02-26T09:55:59.732Z,0.50
2018-02-26T09:58:29.347Z,0.30
2018-02-26T10:00:58.175Z,0.20
2018-02-26T10:03:27.017Z,0.30
2018-02-26T10:05:56.621Z,2.30
2018-02-26T10:08:25.431Z,2.20
2018-02-26T10:10:54.284Z,2.20
2018-02-26T10:13:23.110Z,2.00
2018-02-26T10:15:51.965Z,1.70
2018-02-26T10:18:20.775Z,1.90
2018-02-26T10:20:50.363Z,3.60
2018-02-26T10:23:19.223Z,3.50
2018-02-26T10:25:48.046Z,3.10
2018-02-26T10:28:16.989Z,2.70
2018-02-26T10:30:45.823Z,2.30
2018-02-26T10:33:14.670Z,2.10
2018-02-26T10:35:44.283Z,1.50
2018-02-26T10:38:13.100Z,1.40
2018-02-26T10:40:41.942Z,1.20
2018-02-26T10:43:11.538Z,0.70
2018-02-26T10:45:41.156Z,0.70
2018-02-26T10:48:10.757Z,0.80
2018-02-26T10:50:40.396Z,1.40
2018-02-26T10:53:09.336Z,1.40
2018-02-26T10:55:38.170Z,3.20
2018-02-26T10:58:07.032Z,3.90
2018-02-26T11:00:35.869Z,3.70
2018-02-26T11:03:04.698Z,4.60
2018-02-26T11:05:33.533Z,4.30
2018-02-26T11:08:02.982Z,3.80
2018-02-26T11:10:32.852Z,2.40
2018-02-26T11:13:02.201Z,2.30
2018-02-26T11:15:31.051Z,1.80
2018-02-26T11:17:59.882Z,1.30
2018-02-26T11:20:28.719Z,1.10
2018-02-26T11:22:57.562Z,0.90
2018-02-26T11:25:26.431Z,0.80
2018-02-26T11:27:55.514Z,1.00
2018-02-26T11:30:24.372Z,1.30
2018-02-26T11:32:53.215Z,1.40
2018-02-26T11:35:22.058Z,1.50
2018-02-26T11:37:50.887Z,2.00
2018-02-26T11:40:19.933Z,2.00
2018-02-26T11:42:48.822Z,1.70
2018-02-26T11:45:17.666Z,1.60
2018-02-26T11:47:46.525Z,1.90
2018-02-26T11:50:15.400Z,3.10
2018-02-26T11:52:44.245Z,3.40
2018-02-26T11:55:13.067Z,3.20
2018-02-26T11:57:41.915Z,2.70
2018-02-26T12:00:10.758Z,2.70
2018-02-26T12:02:40.464Z,2.80
2018-02-26T12:05:09.540Z,2.80
2018-02-26T12:07:38.384Z,2.60
2018-02-26T12:10:08.141Z,1.80
2018-02-26T12:12:37.009Z,1.70
2018-02-26T12:15:06.392Z,1.30
2018-02-26T12:17:35.235Z,1.10
2018-02-26T12:20:04.135Z,0.90
2018-02-26T12:22:33.739Z,0.90
2018-02-26T12:25:02.571Z,0.90
2018-02-26T12:27:31.516Z,1.40
2018-02-26T12:30:00.514Z,2.00
2018-02-26T12:32:29.448Z,2.10
2018-02-26T12:34:58.354Z,1.70
2018-02-26T12:37:27.992Z,1.10
2018-02-26T12:39:57.079Z,1.00
2018-02-26T12:42:25.902Z,1.00
2018-02-26T12:44:55.506Z,1.60
2018-02-26T12:47:25.117Z,1.70
2018-02-26T12:49:54.874Z,1.80
2018-02-26T12:52:23.742Z,1.80
2018-02-26T12:54:52.639Z,2.00
2018-02-26T12:57:21.586Z,2.10
2018-02-26T12:59:50.556Z,1.90
2018-02-26T13:02:19.355Z,1.50
2018-02-26T13:04:48.310Z,1.00
2018-02-26T13:07:17.238Z,0.70
2018-02-26T13:09:46.063Z,0.40
2018-02-26T13:12:15.652Z,0.40
2018-02-26T13:14:45.251Z,0.50
2018-02-26T13:17:14.079Z,0.50
2018-02-26T13:19:42.913Z,0.60
2018-02-26T13:22:11.958Z,0.80
2018-02-26T13:24:40.962Z,1.10
2018-02-26T13:27:09.894Z,1.30
2018-02-26T13:29:38.849Z,1.30
2018-02-26T13:32:08.951Z,1.10
2018-02-26T13:34:37.824Z,1.00
2018-02-26T13:37:06.640Z,0.90
2018-02-26T13:39:35.502Z,0.80
2018-02-26T13:42:04.315Z,0.80
2018-02-26T13:44:33.155Z,0.90
2018-02-26T13:47:01.995Z,0.70
2018-02-26T13:49:31.627Z,0.70
2018-02-26T13:52:00.475Z,0.60
2018-02-26T13:54:29.719Z,0.80
2018-02-26T13:56:58.556Z,0.80
2018-02-26T13:59:27.396Z,0.90
2018-02-26T14:01:56.255Z,0.90
2018-02-26T14:04:25.859Z,0.90
2018-02-26T14:06:54.705Z,0.80
2018-02-26T14:09:23.542Z,0.70
2018-02-26T14:11:53.138Z,0.80
2018-02-26T14:14:21.970Z,0.70
2018-02-26T14:16:50.838Z,0.80
2018-02-26T14:19:20.440Z,1.00
2018-02-26T14:21:50.090Z,1.30
2018-02-26T14:24:19.004Z,1.20
2018-02-26T14:26:47.803Z,1.50
2018-02-26T14:29:16.645Z,1.40
2018-02-26T14:31:45.537Z,1.20
2018-02-26T14:34:15.004Z,1.00
2018-02-26T14:36:43.825Z,0.90
2018-02-26T14:39:12.658Z,1.00
2018-02-26T14:41:41.523Z,1.10
2018-02-26T14:44:11.174Z,1.00
2018-02-26T14:46:40.774Z,0.70
2018-02-26T14:49:10.389Z,0.60
2018-02-26T14:51:39.996Z,0.30
2018-02-26T14:54:09.647Z,0.20
2018-02-26T14:56:39.163Z,0.20
2018-02-26T14:59:07.996Z,0.30
2018-02-26T15:01:37.648Z,0.20
2018-02-26T15:04:06.558Z,0.20
2018-02-26T15:06:35.403Z,0.30
2018-02-26T15:09:04.210Z,0.30
2018-02-26T15:11:33.086Z,0.30
2018-02-26T15:14:02.000Z,0.40
2018-02-26T15:16:30.981Z,0.60
2018-02-26T15:19:00.572Z,0.80
2018-02-26T15:21:29.410Z,0.70
2018-02-26T15:23:59.323Z,0.60
2018-02-26T15:26:28.138Z,0.60
2018-02-26T15:28:56.996Z,0.70
2018-02-26T15:31:25.828Z,0.60
2018-02-26T15:33:55.427Z,0.50
2018-02-26T15:36:25.032Z,0.50
2018-02-26T15:38:54.640Z,0.70
2018-02-26T15:41:23.483Z,0.60
2018-02-26T15:43:53.101Z,0.90
2018-02-26T15:46:22.696Z,1.00
2018-02-26T15:48:52.314Z,1.20
2018-02-26T15:51:21.952Z,1.40
2018-02-26T15:53:50.841Z,1.30
2018-02-26T15:56:19.658Z,1.50
2018-02-26T15:58:48.537Z,1.50
2018-02-26T16:01:17.358Z,1.50
2018-02-26T16:03:46.337Z,1.50
2018-02-26T16:06:15.194Z,1.50
2018-02-26T16:08:44.244Z,1.40
2018-02-26T16:11:13.894Z,1.10
2018-02-26T16:13:42.768Z,1.00
2018-02-26T16:16:11.606Z,1.00
2018-02-26T16:18:42.097Z,0.70
2018-02-26T16:21:10.925Z,0.70
2018-02-26T16:23:39.761Z,0.70
2018-02-26T16:26:08.602Z,0.60
2018-02-26T16:28:37.449Z,0.40
2018-02-26T16:31:06.483Z,0.40
2018-02-26T16:33:35.336Z,0.30
2018-02-26T16:36:04.182Z,0.30
2018-02-26T16:38:33.058Z,0.30
2018-02-26T16:41:01.913Z,0.20
2018-02-26T16:43:31.498Z,0.10
2018-02-26T16:46:01.843Z,0.00
2018-02-26T16:48:31.455Z,0.00
2018-02-26T16:51:01.084Z,0.00
2018-02-26T16:53:29.942Z,-0.10
2018-02-26T16:55:59.538Z,0.00
2018-02-26T16:58:28.395Z,0.00
2018-02-26T17:00:57.264Z,0.10
2018-02-26T17:03:26.075Z,0.00
2018-02-26T17:05:54.959Z,0.00
2018-02-26T17:08:23.827Z,0.00
2018-02-26T17:10:52.695Z,-0.20
2018-02-26T17:13:23.018Z,-0.30
2018-02-26T17:15:52.639Z,-0.20
2018-02-26T17:18:22.263Z,-0.20
2018-02-26T17:20:51.110Z,-0.30
2018-02-26T17:23:19.944Z,-0.20
2018-02-26T17:25:48.798Z,-0.30
2018-02-26T17:28:18.441Z,-0.40
2018-02-26T17:30:47.316Z,-0.50
2018-02-26T17:33:16.203Z,-0.40
2018-02-26T17:35:45.059Z,-0.50
2018-02-26T17:38:13.909Z,-0.40
2018-02-26T17:40:42.761Z,-0.50
2018-02-26T17:43:11.611Z,-0.50
2018-02-26T17:45:41.215Z,-0.70
2018-02-26T17:48:10.840Z,-0.70
2018-02-26T17:50:40.452Z,-0.80
2018-02-26T17:53:10.071Z,-0.90
2018-02-26T17:55:38.931Z,-0.90
2018-02-26T17:58:08.523Z,-0.80
2018-02-26T18:00:37.389Z,-0.90
2018-02-26T18:03:06.238Z,-0.90
2018-02-26T18:05:35.832Z,-0.80
2018-02-26T18:08:05.466Z,-0.90
2018-02-26T18:10:34.297Z,-0.90
2018-02-26T18:13:03.136Z,-0.90
2018-02-26T18:15:31.992Z,-0.90
2018-02-26T18:18:00.973Z,-0.90
2018-02-26T18:20:29.851Z,-0.90
2018-02-26T18:22:58.667Z,-0.90
2018-02-26T18:25:28.311Z,-0.90
2018-02-26T18:27:57.199Z,-1.00
2018-02-26T19:00:03.748Z,-0.90
2018-02-26T19:02:34.095Z,-0.80
2018-02-26T19:05:03.739Z,-0.80
2018-02-26T19:07:32.576Z,-0.80
2018-02-26T19:10:01.437Z,-0.80
2018-02-26T19:12:30.277Z,-0.80
2018-02-26T19:14:59.959Z,-0.70
2018-02-26T19:17:28.887Z,-0.80
2018-02-26T19:19:58.478Z,-0.70
2018-02-26T19:22:28.134Z,-0.80
2018-02-26T19:24:56.962Z,-0.90
2018-02-26T19:27:25.854Z,-0.80
2018-02-26T19:29:55.464Z,-0.90
2018-02-26T19:32:24.299Z,-1.00
2018-02-26T19:34:53.196Z,-0.90
2018-02-26T19:37:22.080Z,-1.00
2018-02-26T19:39:50.937Z,-1.00
2018-02-26T19:42:20.578Z,-1.00
2018-02-26T19:44:50.267Z,-0.90
2018-02-26T19:47:19.116Z,-1.00
2018-02-26T19:49:47.993Z,-0.90
2018-02-26T19:52:16.839Z,-0.90
2018-02-26T19:54:45.685Z,-0.90
2018-02-26T19:57:14.539Z,-0.90
2018-02-26T19:59:43.764Z,-0.90
2018-02-26T20:02:12.754Z,-0.90
2018-02-26T20:04:41.591Z,-0.80
2018-02-26T20:07:10.427Z,-0.80
2018-02-26T20:09:39.326Z,-0.80
2018-02-26T20:12:08.195Z,-0.80
2018-02-26T20:14:37.229Z,-0.80
2018-02-26T20:17:06.103Z,-0.80
2018-02-26T20:19:34.965Z,-0.80
2018-02-26T20:22:04.587Z,-0.90
2018-02-26T20:24:33.483Z,-0.90
2018-02-26T20:27:02.338Z,-0.90
2018-02-26T20:29:31.948Z,-0.80
2018-02-26T20:32:01.592Z,-0.80
2018-02-26T20:34:30.464Z,-0.90
2018-02-26T20:36:59.329Z,-0.70
2018-02-26T20:39:28.152Z,-0.80
2018-02-26T20:41:57.118Z,-0.70
2018-02-26T20:44:25.915Z,-0.70
2018-02-26T20:46:55.519Z,-0.70
2018-02-26T20:49:25.161Z,-0.70
2018-02-26T20:51:54.743Z,-0.80
2018-02-26T20:54:24.354Z,-0.70
2018-02-26T20:56:53.979Z,-0.70
2018-02-26T20:59:22.840Z,-0.80
2018-02-26T21:01:52.514Z,-0.80
2018-02-26T21:04:21.375Z,-0.80
2018-02-26T21:06:51.070Z,-0.70
2018-02-26T21:09:19.930Z,-0.60
2018-02-26T21:11:50.175Z,-0.50
2018-02-26T21:14:19.767Z,-0.50
2018-02-26T21:16:49.376Z,-0.60
2018-02-26T21:19:19.003Z,-0.60
2018-02-26T21:21:47.853Z,-0.70
2018-02-26T21:24:17.981Z,-0.70
2018-02-26T21:26:46.872Z,-0.80
2018-02-26T21:29:15.734Z,-1.00
2018-02-26T21:31:45.510Z,-0.90
2018-02-26T21:34:14.394Z,-0.90
2018-02-26T21:36:44.000Z,-1.10
2018-02-26T21:39:12.999Z,-1.10
2018-02-26T21:41:41.992Z,-1.10
2018-02-26T21:44:10.872Z,-1.10
2018-02-26T21:46:39.759Z,-1.00
2018-02-26T21:49:09.383Z,-1.00
2018-02-26T21:51:38.206Z,-1.10
2018-02-26T21:54:07.085Z,-1.00
2018-02-26T21:56:36.026Z,-1.00
2018-02-26T21:59:04.857Z,-1.00
2018-02-26T22:01:34.423Z,-1.10
2018-02-26T22:04:03.288Z,-1.20
2018-02-26T22:06:32.960Z,-1.30
2018-02-26T22:09:01.807Z,-1.30
2018-02-26T22:11:30.671Z,-1.30
2018-02-26T22:14:00.274Z,-1.30
2018-02-26T22:16:29.881Z,-1.30
2018-02-26T22:18:59.487Z,-1.40
2018-02-26T22:21:28.352Z,-1.40
2018-02-26T22:23:57.226Z,-1.40
2018-02-26T22:26:26.094Z,-1.50
2018-02-26T22:28:54.893Z,-1.50
2018-02-26T22:31:23.763Z,-1.50
2018-02-26T22:33:52.608Z,-1.50
2018-02-26T22:36:21.460Z,-1.60
2018-02-26T22:38:50.322Z,-1.70
2018-02-26T22:41:19.955Z,-1.70
2018-02-26T22:43:48.780Z,-1.80
2018-02-26T22:46:17.642Z,-1.80
2018-02-26T22:48:47.260Z,-1.90
2018-02-26T22:51:16.858Z,-1.90
2018-02-26T22:53:46.494Z,-2.00
2018-02-26T22:56:16.091Z,-2.00
2018-02-26T22:58:44.961Z,-2.10
2018-02-26T23:01:14.581Z,-2.00
2018-02-26T23:03:44.173Z,-2.00
2018-02-26T23:06:13.784Z,-2.00
2018-02-26T23:08:43.399Z,-2.00
2018-02-26T23:11:13.002Z,-2.00
2018-02-26T23:13:42.636Z,-2.00
2018-02-26T23:16:11.467Z,-2.10
2018-02-26T23:18:40.318Z,-2.10
2018-02-26T23:21:09.174Z,-2.20
2018-02-26T23:23:38.834Z,-2.30
2018-02-26T23:26:07.636Z,-2.40
2018-02-26T23:28:36.499Z,-2.40
2018-02-26T23:31:05.302Z,-2.40
2018-02-26T23:33:34.139Z,-2.30
2018-02-26T23:36:03.746Z,-2.20
2018-02-26T23:38:33.383Z,-2.20
2018-02-26T23:41:02.214Z,-2.30
2018-02-26T23:43:32.555Z,-2.40
2018-02-26T23:46:02.187Z,-2.30
2018-02-26T23:48:31.022Z,-2.40
2018-02-26T23:50:59.914Z,-2.40
2018-02-26T23:53:28.731Z,-2.40
2018-02-26T23:55:57.671Z,-2.50
2018-02-26T23:58:26.498Z,-2.50
